Time;durP1;ratioP1;P1;durP2;ratioP2;P2;SDS_P1;SDS_P2;PMS_P1;PMS_P2;Temp;Humidity;BMP_temperature;BMP_pressure;BME280_temperature;BME280_humidity;BME280_pressure;Samples;Min_cycle;Max_cycle;Signal;HPM_P1;HPM_P2
2023/08/13 00:00:44;;;;;;;5.90;5.40;;;;;;;16.91;100.00;101245.91;6185161;23;20051;-68
2023/08/13 00:03:11;;;;;;;6.80;6.20;;;;;;;16.96;100.00;101258.84;6170127;23;20111;-68
2023/08/13 00:05:38;;;;;;;5.75;5.25;;;;;;;16.64;100.00;101200.09;6166140;23;20116;-68
2023/08/13 00:08:05;;;;;;;5.88;5.57;;;;;;;16.99;100.00;101247.19;6195782;23;20030;-68
2023/08/13 00:10:31;;;;;;;5.90;5.25;;;;;;;17.00;100.00;101252.38;6198579;23;20599;-68
2023/08/13 00:12:57;;;;;;;5.63;5.32;;;;;;;16.97;100.00;101238.47;6197379;23;20046;-68
2023/08/13 00:15:24;;;;;;;6.13;5.72;;;;;;;17.03;100.00;101246.84;6172338;23;20083;-68
2023/08/13 00:17:51;;;;;;;5.95;5.55;;;;;;;16.71;100.00;101196.91;6198007;23;20028;-68
2023/08/13 00:20:17;;;;;;;6.18;5.78;;;;;;;16.66;100.00;101198.19;6198393;23;20081;-69
2023/08/13 00:22:44;;;;;;;6.22;5.80;;;;;;;16.93;100.00;101237.84;6197742;23;20149;-68
2023/08/13 00:25:10;;;;;;;6.43;5.82;;;;;;;16.59;100.00;101216.31;6171073;23;20039;-69
2023/08/13 00:27:37;;;;;;;6.32;5.93;;;;;;;16.85;100.00;101241.03;6196304;23;20008;-68
2023/08/13 00:30:07;;;;;;;6.15;5.72;;;;;;;16.37;100.00;101176.38;6148305;23;20513;-68
2023/08/13 00:32:33;;;;;;;7.07;6.13;;;;;;;16.77;100.00;101253.94;6194060;23;20012;-67
2023/08/13 00:35:00;;;;;;;5.60;5.30;;;;;;;14.91;100.00;100951.53;6189408;23;20076;-71
2023/08/13 00:37:26;;;;;;;5.97;5.57;;;;;;;16.66;100.00;101245.91;6198152;23;20033;-69
2023/08/13 00:39:53;;;;;;;6.25;5.80;;;;;;;16.76;100.00;101254.91;6198005;23;20045;-68
2023/08/13 00:42:19;;;;;;;6.65;6.18;;;;;;;16.80;100.00;101256.38;6195022;23;20105;-68
2023/08/13 00:44:45;;;;;;;6.63;5.97;;;;;;;16.66;100.00;101240.59;6201257;23;20016;-69
2023/08/13 00:47:12;;;;;;;6.07;5.57;;;;;;;16.41;100.00;101196.38;6197011;23;20655;-68
2023/08/13 00:49:39;;;;;;;6.45;5.95;;;;;;;16.69;100.00;101240.38;6198950;23;20991;-67
2023/08/13 00:52:06;;;;;;;6.05;5.55;;;;;;;16.33;100.00;101184.50;6193105;23;20031;-69
2023/08/13 00:54:34;;;;;;;7.00;6.35;;;;;;;16.53;100.00;101222.88;6198953;23;20546;-68
2023/08/13 00:57:02;;;;;;;6.13;5.63;;;;;;;16.45;100.00;101219.06;6199687;23;20483;-68
2023/08/13 00:59:32;;;;;;;6.68;6.15;;;;;;;16.70;100.00;101258.81;6198581;23;20019;-69
2023/08/13 01:02:00;;;;;;;6.07;5.68;;;;;;;16.70;100.00;101255.34;6202116;23;20034;-69
2023/08/13 01:04:26;;;;;;;5.78;5.35;;;;;;;16.69;100.00;101254.47;6173290;23;20025;-68
2023/08/13 01:07:02;;;;;;;6.05;5.45;;;;;;;16.65;100.00;101254.78;6198887;23;20044;-68
2023/08/13 01:10:04;;;;;;;5.82;5.43;;;;;;;16.64;100.00;101253.94;6177543;23;20077;-69
2023/08/13 01:13:10;;;;;;;6.70;6.10;;;;;;;16.61;100.00;101264.75;6179645;23;20158;-69
2023/08/13 01:15:39;;;;;;;5.88;5.45;;;;;;;16.59;100.00;101271.97;6179897;23;20095;-68
2023/08/13 01:18:07;;;;;;;6.65;6.05;;;;;;;16.33;100.00;101244.59;6171993;23;20097;-68
2023/08/13 01:20:39;;;;;;;6.13;5.70;;;;;;;16.20;100.00;101214.59;6207565;23;20027;-67
2023/08/13 01:23:06;;;;;;;6.22;5.72;;;;;;;16.62;100.00;101277.06;6178700;23;20052;-69
2023/08/13 01:25:33;;;;;;;6.22;5.70;;;;;;;16.46;100.00;101255.22;6201102;23;20027;-68
2023/08/13 01:28:24;;;;;;;6.20;5.70;;;;;;;16.42;100.00;101251.09;6201953;23;20033;-68
2023/08/13 01:31:24;;;;;;;6.30;5.90;;;;;;;16.52;100.00;101276.84;6208411;23;20490;-68
2023/08/13 01:33:52;;;;;;;6.75;5.63;;;;;;;16.12;100.00;101209.81;6202543;23;20087;-69
2023/08/13 01:36:19;;;;;;;6.43;5.85;;;;;;;16.40;100.00;101261.78;6201221;23;20027;-67
2023/08/13 01:38:46;;;;;;;6.38;5.80;;;;;;;16.28;100.00;101257.31;6202821;23;20087;-68
2023/08/13 01:41:13;;;;;;;6.95;5.80;;;;;;;16.46;100.00;101281.72;6204415;23;20030;-68
2023/08/13 01:43:39;;;;;;;6.10;5.70;;;;;;;16.31;100.00;101268.53;6197849;23;20019;-68
2023/08/13 01:46:06;;;;;;;7.60;5.95;;;;;;;16.32;100.00;101274.69;6204634;23;20075;-68
2023/08/13 01:48:32;;;;;;;5.90;5.60;;;;;;;16.45;100.00;101294.09;6198725;23;20080;-67
2023/08/13 01:50:59;;;;;;;6.60;6.00;;;;;;;15.88;100.00;101207.84;6206613;23;20700;-68
2023/08/13 01:53:25;;;;;;;5.93;5.63;;;;;;;16.18;100.00;101272.09;6169099;23;20016;-68
2023/08/13 01:55:52;;;;;;;5.63;5.32;;;;;;;16.16;100.00;101290.75;6203832;23;20087;-68
2023/08/13 01:58:18;;;;;;;6.40;5.90;;;;;;;16.03;100.00;101290.69;6200618;23;20039;-67
2023/08/13 02:00:45;;;;;;;6.28;5.85;;;;;;;16.15;100.00;101296.97;6201937;23;20084;-67
2023/08/13 02:03:11;;;;;;;5.90;5.50;;;;;;;15.73;100.00;101240.63;6199266;23;20024;-68
2023/08/13 02:05:38;;;;;;;5.88;5.57;;;;;;;15.90;100.00;101279.22;6200012;23;20094;-68
2023/08/13 02:08:05;;;;;;;6.32;5.93;;;;;;;15.90;100.00;101281.88;6202901;23;20024;-68
2023/08/13 02:10:31;;;;;;;5.95;5.55;;;;;;;14.76;100.00;101094.28;6199710;23;20121;-68
2023/08/13 02:12:59;;;;;;;6.38;5.88;;;;;;;15.69;100.00;101247.03;6196118;23;20470;-67
2023/08/13 02:15:25;;;;;;;6.82;6.15;;;;;;;15.95;100.00;101293.00;6199739;23;20698;-67
2023/08/13 02:17:52;;;;;;;6.00;5.60;;;;;;;15.87;100.00;101290.84;6203564;23;20026;-68
2023/08/13 02:20:18;;;;;;;6.22;5.82;;;;;;;15.84;100.00;101292.88;6195387;23;20024;-68
2023/08/13 02:22:45;;;;;;;5.85;5.45;;;;;;;15.83;100.00;101297.28;6200775;23;20035;-68
2023/08/13 02:25:12;;;;;;;5.90;5.60;;;;;;;15.72;100.00;101300.63;6195105;23;20658;-69
2023/08/13 02:27:38;;;;;;;6.22;5.55;;;;;;;15.51;100.00;101259.66;6201316;23;20016;-68
2023/08/13 02:30:06;;;;;;;6.47;6.07;;;;;;;15.64;100.00;101296.75;6177076;23;20040;-68
2023/08/13 02:32:32;;;;;;;6.00;5.60;;;;;;;15.60;100.00;101300.56;6202148;23;20694;-68
2023/08/13 02:34:59;;;;;;;5.80;5.50;;;;;;;15.42;100.00;101276.97;6202556;23;20071;-68
2023/08/13 02:37:25;;;;;;;6.00;5.50;;;;;;;15.50;100.00;101303.78;6198539;23;20003;-68
2023/08/13 02:39:52;;;;;;;6.15;5.65;;;;;;;15.19;100.00;101259.88;6203899;23;20020;-68
2023/08/13 02:42:18;;;;;;;6.55;6.15;;;;;;;15.49;100.00;101304.69;6179908;23;20055;-69
2023/08/13 02:44:45;;;;;;;6.60;6.20;;;;;;;15.38;100.00;101287.84;6202246;23;21374;-68
2023/08/13 02:47:12;;;;;;;6.25;5.80;;;;;;;15.45;100.00;101302.34;6200255;23;20171;-68
2023/08/13 02:49:38;;;;;;;6.35;5.75;;;;;;;15.40;100.00;101302.66;6199703;23;20025;-68
2023/08/13 02:52:05;;;;;;;6.50;6.00;;;;;;;15.39;100.00;101300.09;6200104;23;20199;-69
2023/08/13 02:54:31;;;;;;;6.28;5.78;;;;;;;15.39;100.00;101300.94;6173521;23;20022;-70
2023/08/13 02:56:59;;;;;;;5.70;5.40;;;;;;;15.36;100.00;101288.75;6200177;23;20020;-68
2023/08/13 02:59:26;;;;;;;6.50;5.90;;;;;;;15.27;100.00;101291.13;6201974;23;20028;-68
2023/08/13 03:01:52;;;;;;;5.80;5.40;;;;;;;15.20;100.00;101288.03;6201941;23;20046;-68
2023/08/13 03:04:19;;;;;;;8.05;5.80;;;;;;;14.83;100.00;101229.50;6170457;23;20057;-69
2023/08/13 03:06:45;;;;;;;6.05;5.65;;;;;;;14.94;100.00;101273.78;6198478;23;20011;-69
2023/08/13 03:09:19;;;;;;;6.28;5.88;;;;;;;14.99;100.00;101311.34;6170236;23;20048;-69
2023/08/13 03:11:46;;;;;;;6.22;5.70;;;;;;;14.83;100.00;101276.22;6201388;23;20079;-71
2023/08/13 03:14:13;;;;;;;6.13;5.72;;;;;;;15.07;100.00;101293.22;6201522;23;20043;-68
2023/08/13 03:16:40;;;;;;;6.00;5.65;;;;;;;14.85;100.00;101264.59;6173133;23;20454;-68
2023/08/13 03:19:06;;;;;;;5.85;5.50;;;;;;;14.94;100.00;101294.94;6198309;23;20020;-69
2023/08/13 03:21:33;;;;;;;5.60;5.30;;;;;;;14.82;100.00;101300.97;6169479;23;20008;-68
2023/08/13 03:23:59;;;;;;;5.82;5.43;;;;;;;14.76;100.00;101297.72;6178603;23;20024;-68
2023/08/13 03:26:26;;;;;;;6.65;6.05;;;;;;;14.71;100.00;101302.47;6169921;23;20039;-68
2023/08/13 03:28:52;;;;;;;6.03;5.63;;;;;;;14.41;100.00;101261.97;6199848;23;20016;-68
2023/08/13 03:31:19;;;;;;;5.68;5.28;;;;;;;14.65;100.00;101304.59;6146708;23;20107;-68
2023/08/13 03:33:45;;;;;;;6.43;5.93;;;;;;;14.74;100.00;101312.00;6195781;23;20022;-68
2023/08/13 03:36:11;;;;;;;6.10;5.70;;;;;;;14.67;100.00;101293.03;6170256;23;20076;-68
2023/08/13 03:38:38;;;;;;;6.60;6.15;;;;;;;14.72;100.00;101304.16;6200329;23;20026;-68
2023/08/13 03:41:04;;;;;;;5.60;5.30;;;;;;;14.77;100.00;101309.16;6172661;23;20039;-68
2023/08/13 03:43:31;;;;;;;6.07;5.68;;;;;;;14.72;100.00;101304.16;6194378;23;20051;-68
2023/08/13 03:45:57;;;;;;;5.50;5.20;;;;;;;14.67;100.00;101300.94;6201445;23;20020;-69
2023/08/13 03:48:23;;;;;;;5.70;5.40;;;;;;;14.67;100.00;101316.78;6198895;23;20110;-68
2023/08/13 03:50:50;;;;;;;6.25;5.65;;;;;;;14.39;100.00;101266.50;6198252;23;20000;-68
2023/08/13 03:53:22;;;;;;;6.10;5.60;;;;;;;14.54;100.00;101323.69;6198982;23;20453;-69
2023/08/13 03:55:48;;;;;;;5.70;5.40;;;;;;;14.43;100.00;101315.56;6202357;23;20689;-68
2023/08/13 03:58:15;;;;;;;5.90;5.55;;;;;;;14.19;100.00;101301.97;6186179;23;20371;-69
2023/08/13 04:00:41;;;;;;;6.13;5.63;;;;;;;14.37;100.00;101316.75;6198732;23;20693;-69
2023/08/13 04:03:09;;;;;;;5.88;5.47;;;;;;;14.24;100.00;101308.69;6198356;23;20528;-69
2023/08/13 04:05:51;;;;;;;5.57;5.28;;;;;;;14.33;100.00;101318.75;6197207;23;20043;-68
2023/08/13 04:08:18;;;;;;;6.10;5.60;;;;;;;14.35;100.00;101313.34;6198074;23;20081;-71
2023/08/13 04:10:44;;;;;;;5.68;5.28;;;;;;;14.30;100.00;101320.72;6166841;23;20082;-69
2023/08/13 04:13:11;;;;;;;6.03;5.60;;;;;;;14.34;100.00;101325.72;6199263;23;20024;-69
2023/08/13 04:15:37;;;;;;;6.15;5.85;;;;;;;14.32;100.00;101337.31;6164807;23;20103;-69
2023/08/13 04:18:04;;;;;;;6.22;5.75;;;;;;;14.31;100.00;101339.09;6177354;23;20020;-69
2023/08/13 04:20:31;;;;;;;5.85;5.50;;;;;;;14.28;100.00;101339.25;6175596;23;20032;-69
2023/08/13 04:22:57;;;;;;;6.32;5.93;;;;;;;14.25;100.00;101344.75;6196902;23;20020;-71
2023/08/13 04:25:25;;;;;;;5.85;5.45;;;;;;;13.70;100.00;101263.41;6200810;23;20053;-69
2023/08/13 04:27:52;;;;;;;6.20;5.90;;;;;;;14.21;100.00;101345.81;6200470;23;20074;-68
2023/08/13 04:30:18;;;;;;;5.72;5.43;;;;;;;14.26;100.00;101340.31;6180702;23;20087;-69
2023/08/13 04:32:53;;;;;;;5.65;5.35;;;;;;;14.11;100.00;101324.41;6197941;23;20056;-68
2023/08/13 04:35:21;;;;;;;5.50;5.10;;;;;;;14.05;100.00;101306.28;6164786;23;20028;-69
2023/08/13 04:37:49;;;;;;;6.22;5.75;;;;;;;14.36;100.00;101355.50;6174290;23;20023;-67
2023/08/13 04:40:16;;;;;;;5.70;5.38;;;;;;;14.40;100.00;101355.34;6168278;23;20094;-68
2023/08/13 04:42:43;;;;;;;6.00;5.40;;;;;;;14.24;100.00;101321.91;6194351;23;20505;-68
2023/08/13 04:45:12;;;;;;;5.85;5.45;;;;;;;14.28;100.00;101320.78;6201481;23;20050;-68
2023/08/13 04:47:39;;;;;;;5.95;5.55;;;;;;;13.81;100.00;101229.38;6202901;23;20028;-68
2023/08/13 04:50:08;;;;;;;5.80;5.40;;;;;;;14.65;100.00;101353.00;6203725;23;20500;-68
2023/08/13 04:52:35;;;;;;;6.10;5.70;;;;;;;14.78;100.00;101360.22;6174647;23;20020;-69
2023/08/13 04:55:02;;;;;;;5.72;5.32;;;;;;;14.89;100.00;101355.13;6204866;23;20044;-68
2023/08/13 04:57:29;;;;;;;5.70;5.30;;;;;;;15.09;100.00;101357.41;6206154;23;20012;-68
2023/08/13 04:59:55;;;;;;;6.05;5.53;;;;;;;15.21;100.00;101337.31;6204914;23;20698;-68
2023/08/13 05:02:22;;;;;;;6.03;5.53;;;;;;;14.80;100.00;101236.78;6199425;23;20511;-67
2023/08/13 05:04:48;;;;;;;6.13;5.70;;;;;;;15.62;100.00;101354.22;6203196;23;20053;-68
2023/08/13 05:07:14;;;;;;;5.95;5.55;;;;;;;14.84;100.00;101211.88;6203249;23;20020;-68
2023/08/13 05:09:41;;;;;;;6.93;6.25;;;;;;;14.80;100.00;101182.13;6202170;23;20458;-68
2023/08/13 05:12:08;;;;;;;7.00;5.85;;;;;;;15.65;100.00;101327.56;6207806;23;20037;-68
2023/08/13 05:14:34;;;;;;;6.50;6.00;;;;;;;15.55;100.00;101324.63;6201739;23;20073;-67
2023/08/13 05:17:01;;;;;;;5.97;5.63;;;;;;;15.50;100.00;101324.09;6199970;23;20048;-67
2023/08/13 05:19:27;;;;;;;6.07;5.70;;;;;;;15.39;100.00;101308.88;6169266;23;20013;-67
2023/08/13 05:21:54;;;;;;;7.32;6.00;;;;;;;15.37;100.00;101289.59;6199896;23;20030;-67
2023/08/13 05:24:20;;;;;;;5.90;5.50;;;;;;;15.65;100.00;101316.97;6168136;23;20103;-67
2023/08/13 05:26:47;;;;;;;6.20;5.72;;;;;;;15.51;100.00;101284.28;6172190;23;20032;-68
2023/08/13 05:29:14;;;;;;;6.90;6.32;;;;;;;15.86;100.00;101306.84;6180821;23;20032;-68
2023/08/13 05:31:41;;;;;;;6.72;6.18;;;;;;;15.97;100.00;101301.69;6182290;23;20028;-67
2023/08/13 05:34:07;;;;;;;6.03;5.63;;;;;;;16.02;100.00;101301.41;6204743;23;20016;-69
2023/08/13 05:36:34;;;;;;;9.18;6.20;;;;;;;16.08;100.00;101301.00;6204470;23;20020;-68
2023/08/13 05:39:01;;;;;;;8.48;5.97;;;;;;;16.19;100.00;101305.59;6199112;23;20599;-67
2023/08/13 05:41:28;;;;;;;7.07;6.47;;;;;;;16.02;100.00;101264.34;6202062;23;20048;-68
2023/08/13 05:43:54;;;;;;;6.00;5.60;;;;;;;16.22;100.00;101297.44;6198496;23;20034;-68
2023/08/13 05:46:21;;;;;;;6.50;5.90;;;;;;;16.27;100.00;101298.81;6147991;23;20024;-68
2023/08/13 05:48:47;;;;;;;6.03;5.57;;;;;;;16.30;100.00;101305.72;6177427;23;20015;-67
2023/08/13 05:51:13;;;;;;;6.65;5.97;;;;;;;16.38;100.00;101305.19;6170914;23;20102;-67
2023/08/13 05:53:40;;;;;;;9.80;6.45;;;;;;;16.49;100.00;101307.97;6200991;23;20979;-67
2023/08/13 05:56:06;;;;;;;5.90;5.50;;;;;;;16.59;100.00;101306.41;6199454;23;20025;-68
2023/08/13 05:58:33;;;;;;;6.35;5.95;;;;;;;16.78;100.00;101315.75;6199642;23;20024;-67
2023/08/13 06:01:00;;;;;;;6.10;5.70;;;;;;;16.87;100.00;101312.50;6197304;23;20534;-67
2023/08/13 06:03:27;;;;;;;6.45;6.05;;;;;;;16.99;100.00;101305.50;6202279;23;20024;-67
2023/08/13 06:05:57;;;;;;;8.48;6.35;;;;;;;17.11;100.00;101305.50;6201832;23;20038;-67
2023/08/13 06:08:23;;;;;;;7.15;6.30;;;;;;;17.22;100.00;101291.50;6203921;23;20048;-67
2023/08/13 06:10:50;;;;;;;7.38;6.68;;;;;;;17.16;100.00;101273.38;6203140;23;20099;-66
2023/08/13 06:13:16;;;;;;;6.97;6.38;;;;;;;16.71;100.00;101196.91;6202244;23;20085;-67
2023/08/13 06:15:43;;;;;;;6.75;6.15;;;;;;;17.12;100.00;101262.13;6199615;23;20081;-67
2023/08/13 06:18:13;;;;;;;10.55;6.10;;;;;;;17.29;100.00;101271.50;6198842;23;20020;-67
2023/08/13 06:20:39;;;;;;;6.57;5.97;;;;;;;17.49;100.00;101270.09;6179162;23;20229;-67
2023/08/13 06:23:05;;;;;;;6.60;6.20;;;;;;;17.34;100.00;101232.25;6197269;23;20029;-68
2023/08/13 06:25:32;;;;;;;6.93;6.32;;;;;;;17.75;100.00;101270.00;6173697;23;20446;-68
2023/08/13 06:28:01;;;;;;;6.68;6.15;;;;;;;17.84;100.00;101253.44;6202661;23;20507;-68
2023/08/13 06:30:27;;;;;;;6.15;5.75;;;;;;;17.72;100.00;101238.34;6199702;23;20043;-68
2023/08/13 06:32:54;;;;;;;6.75;6.15;;;;;;;17.84;100.00;101237.50;6179272;23;20036;-67
2023/08/13 06:35:20;;;;;;;6.00;5.60;;;;;;;17.62;100.00;101177.16;6199547;23;20631;-67
2023/08/13 06:37:47;;;;;;;6.75;6.20;;;;;;;17.92;100.00;101224.50;6172823;23;20016;-68
2023/08/13 06:40:27;;;;;;;7.13;6.53;;;;;;;18.08;100.00;101226.84;6202556;23;20024;-67
2023/08/13 06:42:54;;;;;;;6.88;6.15;;;;;;;18.20;100.00;101225.06;6198699;23;20040;-68
2023/08/13 06:45:26;;;;;;;14.25;6.70;;;;;;;18.23;100.00;101203.56;6204184;23;20032;-67
2023/08/13 06:47:53;;;;;;;6.60;6.10;;;;;;;18.52;100.00;101222.59;6199446;23;20043;-68
2023/08/13 06:50:19;;;;;;;9.20;6.55;;;;;;;18.51;100.00;101191.66;6168880;23;20036;-68
2023/08/13 06:52:45;;;;;;;6.75;6.22;;;;;;;18.88;100.00;101209.22;6199269;23;20508;-68
2023/08/13 06:55:12;;;;;;;6.13;5.80;;;;;;;19.00;100.00;101199.41;6204636;23;20052;-67
2023/08/13 06:57:38;;;;;;;6.50;6.00;;;;;;;19.07;100.00;101188.16;6203202;23;20008;-67
2023/08/13 07:00:05;;;;;;;6.50;5.90;;;;;;;19.15;100.00;101165.44;6203481;23;20024;-67
2023/08/13 07:02:32;;;;;;;6.35;5.90;;;;;;;19.23;100.00;101152.34;6202812;23;20094;-67
2023/08/13 07:04:58;;;;;;;6.63;6.22;;;;;;;19.37;100.00;101156.56;6201660;23;20089;-70
2023/08/13 07:07:25;;;;;;;6.22;5.85;;;;;;;19.52;100.00;101145.47;6153028;23;20117;-69
2023/08/13 07:09:51;;;;;;;6.90;6.40;;;;;;;19.16;100.00;101066.84;6201924;23;20030;-68
2023/08/13 07:12:18;;;;;;;6.20;5.80;;;;;;;19.41;100.00;101078.13;6199652;23;20051;-67
2023/08/13 07:14:44;;;;;;;6.50;6.10;;;;;;;19.61;100.00;101103.09;6199155;23;20028;-67
2023/08/13 07:17:11;;;;;;;6.95;6.30;;;;;;;19.63;100.00;101098.47;6200426;23;20034;-67
2023/08/13 07:19:37;;;;;;;6.63;6.22;;;;;;;19.90;100.00;101114.78;6204132;23;20084;-68
2023/08/13 07:22:04;;;;;;;7.25;6.75;;;;;;;20.07;100.00;101092.06;6197983;23;20028;-67
2023/08/13 07:24:30;;;;;;;6.47;5.88;;;;;;;20.29;99.14;101076.88;6199449;23;20051;-67
2023/08/13 07:26:57;;;;;;;6.57;5.95;;;;;;;20.48;97.21;101068.09;6170883;23;20044;-68
2023/08/13 07:29:23;;;;;;;6.18;5.68;;;;;;;20.53;94.99;101031.22;6203690;23;20095;-67
2023/08/13 07:31:49;;;;;;;6.85;6.35;;;;;;;20.43;92.98;100985.84;6166371;23;20107;-68
2023/08/13 07:34:16;;;;;;;6.75;6.25;;;;;;;19.43;91.52;100818.00;6196952;23;20454;-67
2023/08/13 07:36:43;;;;;;;6.85;6.38;;;;;;;20.45;91.86;100986.56;6175509;23;20024;-68
2023/08/13 07:39:10;;;;;;;6.50;6.00;;;;;;;20.50;89.38;100964.81;6169834;23;20016;-67
2023/08/13 07:41:36;;;;;;;6.30;5.90;;;;;;;20.37;88.84;100918.94;6169859;23;20047;-68
2023/08/13 07:44:04;;;;;;;6.18;5.68;;;;;;;20.54;87.78;100936.91;6148740;23;20055;-68
2023/08/13 07:46:31;;;;;;;6.53;6.03;;;;;;;20.93;86.84;100952.94;6194948;23;20027;-68
2023/08/13 07:48:57;;;;;;;6.20;5.78;;;;;;;21.06;84.28;100897.44;6174772;23;20036;-67
2023/08/13 07:51:24;;;;;;;6.50;6.00;;;;;;;21.32;82.47;100878.13;6197003;23;20666;-68
2023/08/13 07:53:50;;;;;;;6.57;5.97;;;;;;;21.49;81.09;100856.06;6170281;23;20031;-68
2023/08/13 07:56:17;;;;;;;6.63;6.22;;;;;;;21.81;80.68;100880.63;6200813;23;20028;-68
2023/08/13 07:58:43;;;;;;;6.68;6.13;;;;;;;22.04;78.81;100827.63;6198186;23;20035;-68
2023/08/13 08:01:10;;;;;;;6.53;5.93;;;;;;;21.94;75.07;100702.09;6200836;23;20087;-68
2023/08/13 08:03:37;;;;;;;6.65;6.15;;;;;;;22.49;72.71;100709.91;6199806;23;20080;-68
2023/08/13 08:06:04;;;;;;;6.40;5.88;;;;;;;22.69;70.12;100659.69;6171388;23;20111;-68
2023/08/13 08:08:31;;;;;;;6.25;5.78;;;;;;;22.57;68.85;100611.97;6195672;23;20023;-67
2023/08/13 08:10:57;;;;;;;6.57;6.18;;;;;;;22.65;69.19;100652.97;6197703;23;20020;-68
2023/08/13 08:13:26;;;;;;;6.30;6.00;;;;;;;23.04;68.86;100697.97;6199478;23;20031;-68
2023/08/13 08:15:52;;;;;;;6.85;6.20;;;;;;;23.19;67.54;100643.81;6197867;23;20075;-68
2023/08/13 08:18:18;;;;;;;6.00;5.70;;;;;;;23.07;65.83;100579.03;6193201;23;21261;-67
2023/08/13 08:20:45;;;;;;;7.20;5.80;;;;;;;22.33;65.19;100495.91;6196007;23;20034;-68
2023/08/13 08:23:13;;;;;;;9.35;6.32;;;;;;;22.49;66.70;100607.41;6196908;23;20353;-69
2023/08/13 08:25:40;;;;;;;6.43;5.90;;;;;;;22.56;66.99;100640.53;6196921;23;20075;-68
2023/08/13 08:28:06;;;;;;;6.45;5.85;;;;;;;22.83;67.03;100665.41;6196675;23;20036;-67
2023/08/13 08:30:33;;;;;;;6.00;5.60;;;;;;;22.79;65.62;100587.31;6168122;23;20091;-67
2023/08/13 08:32:59;;;;;;;6.80;6.22;;;;;;;23.14;63.93;100585.41;6199896;23;20024;-69
2023/08/13 08:35:26;;;;;;;6.35;5.80;;;;;;;23.27;65.23;100657.22;6172733;23;20050;-69
2023/08/13 08:37:52;;;;;;;6.00;5.60;;;;;;;23.07;64.43;100579.91;6192806;23;20359;-68
2023/08/13 08:40:19;;;;;;;6.10;5.55;;;;;;;22.83;63.17;100545.84;6199543;23;20758;-68
2023/08/13 08:42:45;;;;;;;6.85;5.90;;;;;;;22.95;64.71;100623.97;6195232;23;20020;-69
2023/08/13 08:45:13;;;;;;;5.90;5.60;;;;;;;23.25;64.89;100669.94;6181200;23;20055;-68
2023/08/13 08:47:42;;;;;;;6.13;5.72;;;;;;;23.47;64.71;100682.72;6200158;23;20075;-69
2023/08/13 08:50:12;;;;;;;6.20;5.80;;;;;;;23.48;64.81;100700.47;6170214;23;20044;-68
2023/08/13 08:52:39;;;;;;;7.07;5.95;;;;;;;23.45;63.23;100651.72;6168751;23;20076;-69
2023/08/13 08:55:07;;;;;;;6.30;5.90;;;;;;;23.21;63.94;100649.84;6196280;23;20052;-69
2023/08/13 08:57:33;;;;;;;5.70;5.40;;;;;;;22.83;63.88;100603.88;6146862;23;20036;-68
2023/08/13 09:00:01;;;;;;;6.20;5.80;;;;;;;22.46;64.34;100599.72;6198933;23;20012;-68
2023/08/13 09:02:28;;;;;;;6.00;5.60;;;;;;;22.79;64.67;100669.41;6169511;23;20083;-68
2023/08/13 09:04:55;;;;;;;7.50;5.68;;;;;;;23.44;64.40;100720.53;6196931;23;20035;-69
2023/08/13 09:07:30;;;;;;;6.13;5.80;;;;;;;23.80;62.61;100671.22;6195698;23;20016;-69
2023/08/13 09:09:57;;;;;;;6.25;5.80;;;;;;;23.82;60.77;100600.38;6198739;23;20029;-70
2023/08/13 09:12:24;;;;;;;6.18;5.68;;;;;;;24.39;59.87;100638.81;6199696;23;20033;-69
2023/08/13 09:14:53;;;;;;;6.07;5.68;;;;;;;24.58;59.13;100624.22;6141956;23;20035;-69
2023/08/13 09:17:23;;;;;;;6.30;5.80;;;;;;;24.68;57.08;100531.72;6193633;23;20025;-68
2023/08/13 09:19:50;;;;;;;6.20;5.80;;;;;;;24.42;56.63;100515.91;6194629;23;20031;-69
2023/08/13 09:22:16;;;;;;;6.65;6.07;;;;;;;24.33;57.06;100500.03;6191624;23;20047;-68
2023/08/13 09:24:46;;;;;;;6.38;5.88;;;;;;;24.10;57.04;100495.44;6178897;23;20028;-68
2023/08/13 09:27:14;;;;;;;6.13;5.72;;;;;;;23.92;58.03;100529.69;6164537;23;20081;-68
2023/08/13 09:29:41;;;;;;;6.10;5.70;;;;;;;24.07;57.53;100544.03;6200210;23;20028;-68
2023/08/13 09:32:07;;;;;;;6.45;5.68;;;;;;;24.33;58.11;100596.56;6199248;23;20041;-68
2023/08/13 09:34:34;;;;;;;6.22;5.47;;;;;;;24.68;57.52;100601.50;6202335;23;20044;-68
2023/08/13 09:37:01;;;;;;;6.05;5.65;;;;;;;24.59;56.88;100548.88;6200773;23;20024;-68
2023/08/13 09:39:29;;;;;;;6.13;5.70;;;;;;;25.04;56.32;100608.22;6201681;23;20078;-68
2023/08/13 09:41:55;;;;;;;6.28;5.78;;;;;;;25.16;54.25;100533.41;6200989;23;20027;-68
2023/08/13 09:44:27;;;;;;;6.55;6.00;;;;;;;25.19;55.17;100594.84;6177231;23;20088;-67
2023/08/13 09:46:58;;;;;;;6.00;5.60;;;;;;;25.34;54.26;100598.47;6201403;23;20073;-69
2023/08/13 09:49:29;;;;;;;6.18;5.68;;;;;;;25.33;54.52;100623.66;6180622;23;20544;-69
2023/08/13 09:52:00;;;;;;;5.60;5.30;;;;;;;24.95;53.41;100532.22;6200059;23;20521;-68
2023/08/13 09:55:06;;;;;;;6.78;6.13;;;;;;;25.30;53.43;100610.59;6169820;23;20088;-71
2023/08/13 09:57:36;;;;;;;6.55;5.70;;;;;;;25.16;53.94;100622.03;6124568;23;20032;-67
2023/08/13 10:00:07;;;;;;;7.30;5.90;;;;;;;24.69;54.20;100589.75;6204644;23;20713;-68
2023/08/13 10:02:35;;;;;;;6.80;6.10;;;;;;;24.83;55.17;100689.34;6199042;23;20728;-68
2023/08/13 10:05:05;;;;;;;6.60;6.00;;;;;;;25.09;54.73;100703.31;6203973;23;20032;-68
2023/08/13 10:07:32;;;;;;;6.03;5.63;;;;;;;25.00;52.82;100620.31;6172827;23;20039;-68
2023/08/13 10:10:00;;;;;;;6.07;5.68;;;;;;;24.22;55.14;100613.88;6172519;23;20091;-68
2023/08/13 10:12:34;;;;;;;6.10;5.65;;;;;;;24.97;54.38;100696.66;6202256;23;20439;-68
2023/08/13 10:15:01;;;;;;;6.05;5.55;;;;;;;25.42;53.70;100726.53;6201768;23;20030;-68
2023/08/13 10:17:28;;;;;;;6.35;5.82;;;;;;;25.56;53.13;100728.47;6203310;23;20411;-68
2023/08/13 10:19:56;;;;;;;6.13;5.68;;;;;;;25.59;53.35;100721.91;6200768;23;20419;-68
2023/08/13 10:22:35;;;;;;;6.65;6.05;;;;;;;24.80;54.34;100631.47;6203524;23;20012;-67
2023/08/13 10:25:02;;;;;;;6.45;5.85;;;;;;;25.50;53.65;100712.19;6200665;23;20079;-68
2023/08/13 10:27:29;;;;;;;6.18;5.70;;;;;;;25.67;51.49;100660.03;6199469;23;20029;-68
2023/08/13 10:30:10;;;;;;;6.00;5.70;;;;;;;25.65;53.36;100764.19;6200093;23;20032;-68
2023/08/13 10:32:46;;;;;;;6.50;6.10;;;;;;;25.63;53.59;100767.03;6143530;23;20045;-68
2023/08/13 10:35:41;;;;;;;6.97;6.28;;;;;;;26.12;54.00;100808.09;6201292;23;20036;-69
2023/08/13 10:38:09;;;;;;;7.32;6.72;;;;;;;25.57;52.60;100703.25;6201055;23;20178;-68
2023/08/13 10:40:58;;;;;;;6.45;5.95;;;;;;;25.72;52.67;100729.38;6200677;23;20461;-68
2023/08/13 10:43:25;;;;;;;6.32;5.78;;;;;;;25.88;52.14;100740.84;6196155;23;20020;-67
2023/08/13 10:45:51;;;;;;;6.75;6.10;;;;;;;25.75;51.78;100702.97;6203526;23;20016;-67
2023/08/13 10:48:28;;;;;;;6.30;5.90;;;;;;;25.67;51.83;100719.16;6200981;23;20461;-67
2023/08/13 10:50:56;;;;;;;6.40;5.90;;;;;;;25.56;53.09;100781.34;6199453;23;20454;-66
2023/08/13 10:53:26;;;;;;;6.60;5.97;;;;;;;25.91;52.65;100785.38;6200974;23;20075;-67
2023/08/13 10:56:00;;;;;;;6.30;5.85;;;;;;;26.10;50.94;100697.16;6203386;23;20012;-67
2023/08/13 10:58:30;;;;;;;7.05;5.93;;;;;;;25.76;51.49;100675.09;6196407;23;20035;-67
2023/08/13 11:01:10;;;;;;;6.28;5.80;;;;;;;25.26;51.42;100583.25;6177858;23;20093;-67
2023/08/13 11:03:51;;;;;;;6.30;5.80;;;;;;;25.86;51.60;100742.06;6199954;23;20024;-68
2023/08/13 11:06:20;;;;;;;6.50;6.10;;;;;;;24.79;52.23;100618.22;6198995;23;20028;-67
2023/08/13 11:08:47;;;;;;;6.35;5.80;;;;;;;25.97;53.03;100834.94;6197506;23;20086;-67
2023/08/13 11:11:19;;;;;;;6.03;5.55;;;;;;;26.16;52.79;100821.03;6176969;23;20093;-67
2023/08/13 11:13:47;;;;;;;10.40;6.00;;;;;;;25.96;52.46;100769.56;6176861;23;20016;-67
2023/08/13 11:16:14;;;;;;;6.57;6.03;;;;;;;24.89;53.45;100643.00;6171474;23;20035;-67
2023/08/13 11:18:41;;;;;;;6.32;5.85;;;;;;;26.09;53.51;100830.81;6174157;23;20014;-67
2023/08/13 11:21:08;;;;;;;6.60;6.13;;;;;;;25.56;52.51;100738.38;6203293;23;20048;-67
2023/08/13 11:23:34;;;;;;;6.60;6.10;;;;;;;25.35;54.14;100798.09;6201609;23;20043;-68